sensor_id;sensor_type;location;lat;lon;timestamp;temperature;humidity
17984;DHT22;9117;52.420;20.728;2023-02-12T00:01:33;1.90;99.90
17984;DHT22;9117;52.420;20.728;2023-02-12T00:04:01;1.90;99.20
17984;DHT22;9117;52.420;20.728;2023-02-12T00:06:29;1.80;98.60
17984;DHT22;9117;52.420;20.728;2023-02-12T00:08:58;1.80;98.90
17984;DHT22;9117;52.420;20.728;2023-02-12T00:11:27;1.90;98.70
17984;DHT22;9117;52.420;20.728;2023-02-12T00:13:57;1.90;99.00
17984;DHT22;9117;52.420;20.728;2023-02-12T00:16:27;1.80;99.40
17984;DHT22;9117;52.420;20.728;2023-02-12T00:18:56;1.80;99.10
17984;DHT22;9117;52.420;20.728;2023-02-12T00:21:25;1.80;99.90
17984;DHT22;9117;52.420;20.728;2023-02-12T00:23:53;1.80;99.90
17984;DHT22;9117;52.420;20.728;2023-02-12T00:26:21;1.80;99.20
17984;DHT22;9117;52.420;20.728;2023-02-12T00:28:50;1.70;99.90
17984;DHT22;9117;52.420;20.728;2023-02-12T00:31:22;1.80;99.90
17984;DHT22;9117;52.420;20.728;2023-02-12T00:33:50;1.70;99.90
17984;DHT22;9117;52.420;20.728;2023-02-12T00:36:21;1.70;99.90
17984;DHT22;9117;52.420;20.728;2023-02-12T00:38:51;1.70;99.90
17984;DHT22;9117;52.420;20.728;2023-02-12T00:41:20;1.80;99.90
17984;DHT22;9117;52.420;20.728;2023-02-12T00:43:48;1.70;99.90
17984;DHT22;9117;52.420;20.728;2023-02-12T00:46:16;1.70;99.90
17984;DHT22;9117;52.420;20.728;2023-02-12T00:48:46;1.70;99.90
17984;DHT22;9117;52.420;20.728;2023-02-12T00:51:14;1.70;99.90
17984;DHT22;9117;52.420;20.728;2023-02-12T00:53:42;1.70;99.90
17984;DHT22;9117;52.420;20.728;2023-02-12T00:56:10;1.70;99.90
17984;DHT22;9117;52.420;20.728;2023-02-12T00:58:39;1.60;99.90
17984;DHT22;9117;52.420;20.728;2023-02-12T01:01:07;1.60;99.90
17984;DHT22;9117;52.420;20.728;2023-02-12T01:03:35;1.70;99.90
17984;DHT22;9117;52.420;20.728;2023-02-12T01:06:06;1.70;99.90
17984;DHT22;9117;52.420;20.728;2023-02-12T01:08:34;1.60;99.90
17984;DHT22;9117;52.420;20.728;2023-02-12T01:11:04;1.60;99.90
17984;DHT22;9117;52.420;20.728;2023-02-12T01:13:34;1.60;99.90
17984;DHT22;9117;52.420;20.728;2023-02-12T01:16:15;1.50;99.90
17984;DHT22;9117;52.420;20.728;2023-02-12T01:18:44;1.50;99.90
17984;DHT22;9117;52.420;20.728;2023-02-12T01:21:16;1.40;99.90
17984;DHT22;9117;52.420;20.728;2023-02-12T01:23:45;1.40;99.90
17984;DHT22;9117;52.420;20.728;2023-02-12T01:26:15;1.30;99.90
17984;DHT22;9117;52.420;20.728;2023-02-12T01:28:49;1.30;99.90
17984;DHT22;9117;52.420;20.728;2023-02-12T01:31:19;1.20;98.90
17984;DHT22;9117;52.420;20.728;2023-02-12T01:33:48;1.10;98.80
17984;DHT22;9117;52.420;20.728;2023-02-12T01:36:19;0.30;99.70
17984;DHT22;9117;52.420;20.728;2023-02-12T01:38:47;1.10;99.90
17984;DHT22;9117;52.420;20.728;2023-02-12T01:41:17;1.00;99.90
17984;DHT22;9117;52.420;20.728;2023-02-12T01:44:08;1.00;99.00
17984;DHT22;9117;52.420;20.728;2023-02-12T01:46:37;1.00;99.90
17984;DHT22;9117;52.420;20.728;2023-02-12T01:49:09;0.90;99.90
17984;DHT22;9117;52.420;20.728;2023-02-12T01:51:40;0.90;99.90
17984;DHT22;9117;52.420;20.728;2023-02-12T01:54:11;0.80;98.70
17984;DHT22;9117;52.420;20.728;2023-02-12T01:56:41;0.80;99.90
17984;DHT22;9117;52.420;20.728;2023-02-12T01:59:09;0.80;99.90
17984;DHT22;9117;52.420;20.728;2023-02-12T02:01:38;0.70;99.90
17984;DHT22;9117;52.420;20.728;2023-02-12T02:04:09;0.70;99.90
17984;DHT22;9117;52.420;20.728;2023-02-12T02:06:45;0.60;99.90
17984;DHT22;9117;52.420;20.728;2023-02-12T02:09:15;0.60;99.90
17984;DHT22;9117;52.420;20.728;2023-02-12T02:11:44;0.60;99.90
17984;DHT22;9117;52.420;20.728;2023-02-12T02:14:29;0.50;99.90
17984;DHT22;9117;52.420;20.728;2023-02-12T02:17:09;0.50;99.90
17984;DHT22;9117;52.420;20.728;2023-02-12T02:20:15;0.60;99.90
17984;DHT22;9117;52.420;20.728;2023-02-12T02:22:54;0.50;99.90
17984;DHT22;9117;52.420;20.728;2023-02-12T02:25:45;0.50;99.90
17984;DHT22;9117;52.420;20.728;2023-02-12T02:28:32;0.60;99.90
17984;DHT22;9117;52.420;20.728;2023-02-12T02:31:13;0.60;98.80
17984;DHT22;9117;52.420;20.728;2023-02-12T02:33:52;0.60;98.40
17984;DHT22;9117;52.420;20.728;2023-02-12T02:36:26;0.60;98.60
17984;DHT22;9117;52.420;20.728;2023-02-12T02:39:03;0.00;99.70
17984;DHT22;9117;52.420;20.728;2023-02-12T02:41:36;0.50;99.90
17984;DHT22;9117;52.420;20.728;2023-02-12T02:44:09;0.60;99.90
17984;DHT22;9117;52.420;20.728;2023-02-12T02:46:45;0.60;98.40
17984;DHT22;9117;52.420;20.728;2023-02-12T02:49:18;0.70;97.50
17984;DHT22;9117;52.420;20.728;2023-02-12T02:51:52;0.70;95.60
17984;DHT22;9117;52.420;20.728;2023-02-12T02:54:26;0.70;98.00
17984;DHT22;9117;52.420;20.728;2023-02-12T02:57:03;0.70;98.10
17984;DHT22;9117;52.420;20.728;2023-02-12T02:59:35;0.80;97.60
17984;DHT22;9117;52.420;20.728;2023-02-12T03:02:09;0.80;97.50
17984;DHT22;9117;52.420;20.728;2023-02-12T03:04:43;0.80;98.90
17984;DHT22;9117;52.420;20.728;2023-02-12T03:07:16;0.80;97.80
17984;DHT22;9117;52.420;20.728;2023-02-12T03:09:48;0.90;98.70
17984;DHT22;9117;52.420;20.728;2023-02-12T03:12:20;0.90;99.70
17984;DHT22;9117;52.420;20.728;2023-02-12T03:14:55;1.00;99.00
17984;DHT22;9117;52.420;20.728;2023-02-12T03:17:30;0.80;96.90
17984;DHT22;9117;52.420;20.728;2023-02-12T03:20:02;0.90;95.60
17984;DHT22;9117;52.420;20.728;2023-02-12T03:22:34;0.90;96.10
17984;DHT22;9117;52.420;20.728;2023-02-12T03:25:08;0.80;92.80
17984;DHT22;9117;52.420;20.728;2023-02-12T03:27:42;0.90;93.10
17984;DHT22;9117;52.420;20.728;2023-02-12T03:30:12;1.00;93.80
17984;DHT22;9117;52.420;20.728;2023-02-12T03:32:46;0.90;92.90
17984;DHT22;9117;52.420;20.728;2023-02-12T03:35:20;1.00;93.00
17984;DHT22;9117;52.420;20.728;2023-02-12T03:37:53;1.00;92.70
17984;DHT22;9117;52.420;20.728;2023-02-12T03:40:28;1.00;91.60
17984;DHT22;9117;52.420;20.728;2023-02-12T03:43:03;1.00;92.60
17984;DHT22;9117;52.420;20.728;2023-02-12T03:45:41;1.00;92.00
17984;DHT22;9117;52.420;20.728;2023-02-12T03:48:18;1.00;91.40
17984;DHT22;9117;52.420;20.728;2023-02-12T03:50:53;1.00;92.20
17984;DHT22;9117;52.420;20.728;2023-02-12T03:53:23;1.00;95.20
17984;DHT22;9117;52.420;20.728;2023-02-12T03:55:56;0.90;90.20
17984;DHT22;9117;52.420;20.728;2023-02-12T03:58:28;1.00;91.40
17984;DHT22;9117;52.420;20.728;2023-02-12T04:00:57;1.00;91.30
17984;DHT22;9117;52.420;20.728;2023-02-12T04:03:28;1.00;90.70
17984;DHT22;9117;52.420;20.728;2023-02-12T04:05:56;1.00;91.30
17984;DHT22;9117;52.420;20.728;2023-02-12T04:08:26;0.90;91.90
17984;DHT22;9117;52.420;20.728;2023-02-12T04:11:00;1.00;92.90
17984;DHT22;9117;52.420;20.728;2023-02-12T04:13:40;1.00;93.10
17984;DHT22;9117;52.420;20.728;2023-02-12T04:16:16;1.00;92.70
17984;DHT22;9117;52.420;20.728;2023-02-12T04:18:48;1.00;96.90
17984;DHT22;9117;52.420;20.728;2023-02-12T04:21:25;1.00;95.00
17984;DHT22;9117;52.420;20.728;2023-02-12T04:24:04;0.90;97.30
17984;DHT22;9117;52.420;20.728;2023-02-12T04:26:36;1.00;96.00
17984;DHT22;9117;52.420;20.728;2023-02-12T04:29:13;1.00;97.50
17984;DHT22;9117;52.420;20.728;2023-02-12T04:31:46;1.00;94.20
17984;DHT22;9117;52.420;20.728;2023-02-12T04:34:25;1.00;96.60
17984;DHT22;9117;52.420;20.728;2023-02-12T04:36:57;1.00;94.20
17984;DHT22;9117;52.420;20.728;2023-02-12T04:39:28;1.00;94.50
17984;DHT22;9117;52.420;20.728;2023-02-12T04:41:57;1.00;95.80
17984;DHT22;9117;52.420;20.728;2023-02-12T04:44:29;1.00;96.20
17984;DHT22;9117;52.420;20.728;2023-02-12T04:46:58;1.00;97.70
17984;DHT22;9117;52.420;20.728;2023-02-12T04:49:27;1.00;97.90
17984;DHT22;9117;52.420;20.728;2023-02-12T04:51:56;1.00;97.40
17984;DHT22;9117;52.420;20.728;2023-02-12T04:54:24;1.00;97.80
17984;DHT22;9117;52.420;20.728;2023-02-12T04:56:52;1.00;97.10
17984;DHT22;9117;52.420;20.728;2023-02-12T04:59:20;1.00;98.40
17984;DHT22;9117;52.420;20.728;2023-02-12T05:01:48;1.00;96.50
17984;DHT22;9117;52.420;20.728;2023-02-12T05:04:17;0.90;97.70
17984;DHT22;9117;52.420;20.728;2023-02-12T05:06:47;0.90;97.00
17984;DHT22;9117;52.420;20.728;2023-02-12T05:09:17;0.90;99.20
17984;DHT22;9117;52.420;20.728;2023-02-12T05:11:45;0.90;97.30
17984;DHT22;9117;52.420;20.728;2023-02-12T05:14:14;1.00;96.70
17984;DHT22;9117;52.420;20.728;2023-02-12T05:16:42;1.00;97.30
17984;DHT22;9117;52.420;20.728;2023-02-12T05:19:10;1.00;98.50
17984;DHT22;9117;52.420;20.728;2023-02-12T05:21:38;1.00;97.30
17984;DHT22;9117;52.420;20.728;2023-02-12T05:24:08;1.00;99.90
17984;DHT22;9117;52.420;20.728;2023-02-12T05:26:36;1.00;99.90
17984;DHT22;9117;52.420;20.728;2023-02-12T05:29:04;1.10;99.60
17984;DHT22;9117;52.420;20.728;2023-02-12T05:31:33;1.00;99.90
17984;DHT22;9117;52.420;20.728;2023-02-12T05:34:01;1.00;99.90
17984;DHT22;9117;52.420;20.728;2023-02-12T05:36:29;0.90;99.90
17984;DHT22;9117;52.420;20.728;2023-02-12T05:38:58;0.90;99.90
17984;DHT22;9117;52.420;20.728;2023-02-12T05:41:28;1.00;99.90
17984;DHT22;9117;52.420;20.728;2023-02-12T05:44:00;1.00;99.90
17984;DHT22;9117;52.420;20.728;2023-02-12T05:46:29;1.00;99.90
17984;DHT22;9117;52.420;20.728;2023-02-12T05:48:58;1.00;99.20
17984;DHT22;9117;52.420;20.728;2023-02-12T05:51:26;1.00;99.70
17984;DHT22;9117;52.420;20.728;2023-02-12T05:53:57;0.90;99.90
17984;DHT22;9117;52.420;20.728;2023-02-12T05:56:29;0.90;99.30
17984;DHT22;9117;52.420;20.728;2023-02-12T05:58:59;0.90;99.90
17984;DHT22;9117;52.420;20.728;2023-02-12T06:01:30;0.80;99.40
17984;DHT22;9117;52.420;20.728;2023-02-12T06:03:59;0.80;99.80
17984;DHT22;9117;52.420;20.728;2023-02-12T06:06:29;0.80;99.90
17984;DHT22;9117;52.420;20.728;2023-02-12T06:08:57;0.80;99.90
17984;DHT22;9117;52.420;20.728;2023-02-12T06:11:26;0.90;99.90
17984;DHT22;9117;52.420;20.728;2023-02-12T06:13:56;0.80;99.40
17984;DHT22;9117;52.420;20.728;2023-02-12T06:16:26;0.70;99.00
17984;DHT22;9117;52.420;20.728;2023-02-12T06:18:55;0.80;98.70
17984;DHT22;9117;52.420;20.728;2023-02-12T06:21:25;0.80;99.90
17984;DHT22;9117;52.420;20.728;2023-02-12T06:23:53;0.80;98.10
17984;DHT22;9117;52.420;20.728;2023-02-12T06:26:22;0.70;98.00
17984;DHT22;9117;52.420;20.728;2023-02-12T06:28:51;0.70;99.00
17984;DHT22;9117;52.420;20.728;2023-02-12T06:31:22;0.80;98.30
17984;DHT22;9117;52.420;20.728;2023-02-12T06:33:52;0.70;99.50
17984;DHT22;9117;52.420;20.728;2023-02-12T06:36:21;0.70;98.90
17984;DHT22;9117;52.420;20.728;2023-02-12T06:38:49;0.60;99.10
17984;DHT22;9117;52.420;20.728;2023-02-12T06:41:18;0.60;99.20
17984;DHT22;9117;52.420;20.728;2023-02-12T06:43:46;0.60;99.90
17984;DHT22;9117;52.420;20.728;2023-02-12T06:46:14;0.60;99.90
17984;DHT22;9117;52.420;20.728;2023-02-12T06:48:44;0.50;99.90
17984;DHT22;9117;52.420;20.728;2023-02-12T06:51:14;0.50;99.00
17984;DHT22;9117;52.420;20.728;2023-02-12T06:53:43;0.40;99.40
17984;DHT22;9117;52.420;20.728;2023-02-12T06:56:12;0.40;99.90
17984;DHT22;9117;52.420;20.728;2023-02-12T06:58:42;0.40;99.90
17984;DHT22;9117;52.420;20.728;2023-02-12T07:01:12;0.40;99.90
17984;DHT22;9117;52.420;20.728;2023-02-12T07:03:47;0.30;99.90
17984;DHT22;9117;52.420;20.728;2023-02-12T07:06:17;0.40;99.90
17984;DHT22;9117;52.420;20.728;2023-02-12T07:08:45;0.40;99.90
17984;DHT22;9117;52.420;20.728;2023-02-12T07:11:13;0.40;99.90
17984;DHT22;9117;52.420;20.728;2023-02-12T07:13:42;0.50;99.90
17984;DHT22;9117;52.420;20.728;2023-02-12T07:16:12;0.50;99.90
17984;DHT22;9117;52.420;20.728;2023-02-12T07:18:43;0.50;99.90
17984;DHT22;9117;52.420;20.728;2023-02-12T07:21:13;0.50;99.90
17984;DHT22;9117;52.420;20.728;2023-02-12T07:23:45;0.60;99.90
17984;DHT22;9117;52.420;20.728;2023-02-12T07:26:17;0.60;99.90
17984;DHT22;9117;52.420;20.728;2023-02-12T07:28:46;0.60;99.90
17984;DHT22;9117;52.420;20.728;2023-02-12T07:31:15;0.70;99.90
17984;DHT22;9117;52.420;20.728;2023-02-12T07:33:46;0.70;99.10
17984;DHT22;9117;52.420;20.728;2023-02-12T07:36:16;0.70;99.90
17984;DHT22;9117;52.420;20.728;2023-02-12T07:38:45;0.70;99.00
17984;DHT22;9117;52.420;20.728;2023-02-12T07:41:15;0.70;98.50
17984;DHT22;9117;52.420;20.728;2023-02-12T07:43:45;0.80;99.00
17984;DHT22;9117;52.420;20.728;2023-02-12T07:46:19;0.80;99.70
17984;DHT22;9117;52.420;20.728;2023-02-12T07:48:50;0.80;99.90
17984;DHT22;9117;52.420;20.728;2023-02-12T07:51:18;0.80;98.90
17984;DHT22;9117;52.420;20.728;2023-02-12T07:53:47;0.80;98.90
17984;DHT22;9117;52.420;20.728;2023-02-12T07:56:17;0.80;99.20
17984;DHT22;9117;52.420;20.728;2023-02-12T07:58:48;0.80;98.90
17984;DHT22;9117;52.420;20.728;2023-02-12T08:01:18;0.90;98.40
17984;DHT22;9117;52.420;20.728;2023-02-12T08:03:49;0.80;98.00
17984;DHT22;9117;52.420;20.728;2023-02-12T08:06:20;0.80;99.90
17984;DHT22;9117;52.420;20.728;2023-02-12T08:08:50;0.80;99.90
17984;DHT22;9117;52.420;20.728;2023-02-12T08:11:18;0.80;99.90
17984;DHT22;9117;52.420;20.728;2023-02-12T08:13:47;0.80;97.90
17984;DHT22;9117;52.420;20.728;2023-02-12T08:16:16;0.90;99.50
17984;DHT22;9117;52.420;20.728;2023-02-12T08:18:45;0.90;99.90
17984;DHT22;9117;52.420;20.728;2023-02-12T08:21:16;1.00;99.90
17984;DHT22;9117;52.420;20.728;2023-02-12T08:23:46;1.00;99.40
17984;DHT22;9117;52.420;20.728;2023-02-12T08:26:18;0.80;98.20
17984;DHT22;9117;52.420;20.728;2023-02-12T08:28:48;1.20;97.80
17984;DHT22;9117;52.420;20.728;2023-02-12T08:31:18;1.20;98.00
17984;DHT22;9117;52.420;20.728;2023-02-12T08:33:48;1.50;97.80
17984;DHT22;9117;52.420;20.728;2023-02-12T08:36:20;1.80;98.40
17984;DHT22;9117;52.420;20.728;2023-02-12T08:38:49;1.80;99.90
17984;DHT22;9117;52.420;20.728;2023-02-12T08:41:19;1.80;99.90
17984;DHT22;9117;52.420;20.728;2023-02-12T08:43:48;1.60;99.90
17984;DHT22;9117;52.420;20.728;2023-02-12T08:46:19;1.90;99.90
17984;DHT22;9117;52.420;20.728;2023-02-12T08:48:48;1.60;99.90
17984;DHT22;9117;52.420;20.728;2023-02-12T08:51:21;1.30;99.90
17984;DHT22;9117;52.420;20.728;2023-02-12T08:53:52;1.60;99.90
17984;DHT22;9117;52.420;20.728;2023-02-12T08:56:21;1.70;99.90
17984;DHT22;9117;52.420;20.728;2023-02-12T08:58:50;1.90;99.90
17984;DHT22;9117;52.420;20.728;2023-02-12T09:01:20;1.80;99.90
17984;DHT22;9117;52.420;20.728;2023-02-12T09:03:49;2.00;99.90
17984;DHT22;9117;52.420;20.728;2023-02-12T09:06:21;1.90;99.90
17984;DHT22;9117;52.420;20.728;2023-02-12T09:08:50;1.80;99.90
17984;DHT22;9117;52.420;20.728;2023-02-12T09:11:21;1.80;99.90
17984;DHT22;9117;52.420;20.728;2023-02-12T09:13:57;1.80;99.90
17984;DHT22;9117;52.420;20.728;2023-02-12T09:16:26;1.60;99.90
17984;DHT22;9117;52.420;20.728;2023-02-12T09:18:54;1.60;99.90
17984;DHT22;9117;52.420;20.728;2023-02-12T09:21:24;1.50;99.90
17984;DHT22;9117;52.420;20.728;2023-02-12T09:23:53;1.70;99.90
17984;DHT22;9117;52.420;20.728;2023-02-12T09:26:23;1.70;99.90
17984;DHT22;9117;52.420;20.728;2023-02-12T09:28:53;1.80;99.90
17984;DHT22;9117;52.420;20.728;2023-02-12T09:31:23;1.80;99.90
17984;DHT22;9117;52.420;20.728;2023-02-12T09:33:53;1.80;99.90
17984;DHT22;9117;52.420;20.728;2023-02-12T09:36:21;1.90;99.90
17984;DHT22;9117;52.420;20.728;2023-02-12T09:38:51;2.20;99.90
17984;DHT22;9117;52.420;20.728;2023-02-12T09:41:43;2.20;99.90
17984;DHT22;9117;52.420;20.728;2023-02-12T09:44:19;2.30;99.90
17984;DHT22;9117;52.420;20.728;2023-02-12T09:46:52;2.20;99.90
17984;DHT22;9117;52.420;20.728;2023-02-12T09:49:39;2.10;99.90
17984;DHT22;9117;52.420;20.728;2023-02-12T09:52:13;2.20;99.90
17984;DHT22;9117;52.420;20.728;2023-02-12T09:54:44;1.90;99.90
17984;DHT22;9117;52.420;20.728;2023-02-12T09:57:16;1.90;99.90
17984;DHT22;9117;52.420;20.728;2023-02-12T09:59:51;2.40;99.90
17984;DHT22;9117;52.420;20.728;2023-02-12T10:02:21;2.40;99.90
17984;DHT22;9117;52.420;20.728;2023-02-12T10:04:51;2.70;99.90
17984;DHT22;9117;52.420;20.728;2023-02-12T10:07:41;2.50;99.90
17984;DHT22;9117;52.420;20.728;2023-02-12T10:10:30;2.20;99.90
17984;DHT22;9117;52.420;20.728;2023-02-12T10:13:04;2.20;99.90
17984;DHT22;9117;52.420;20.728;2023-02-12T10:15:37;2.40;99.90
17984;DHT22;9117;52.420;20.728;2023-02-12T10:18:23;2.50;99.90
17984;DHT22;9117;52.420;20.728;2023-02-12T10:21:05;2.50;99.90
17984;DHT22;9117;52.420;20.728;2023-02-12T10:26:37;2.30;99.90
17984;DHT22;9117;52.420;20.728;2023-02-12T10:29:13;2.30;99.90
17984;DHT22;9117;52.420;20.728;2023-02-12T10:31:45;2.30;99.90
17984;DHT22;9117;52.420;20.728;2023-02-12T10:34:19;2.20;99.90
17984;DHT22;9117;52.420;20.728;2023-02-12T10:36:48;2.10;99.90
17984;DHT22;9117;52.420;20.728;2023-02-12T10:39:21;2.30;99.90
17984;DHT22;9117;52.420;20.728;2023-02-12T10:41:57;2.50;99.90
17984;DHT22;9117;52.420;20.728;2023-02-12T10:44:28;2.50;99.90
17984;DHT22;9117;52.420;20.728;2023-02-12T10:46:56;2.40;99.90
17984;DHT22;9117;52.420;20.728;2023-02-12T10:49:25;2.50;99.90
17984;DHT22;9117;52.420;20.728;2023-02-12T10:52:06;2.50;99.90
17984;DHT22;9117;52.420;20.728;2023-02-12T10:54:39;2.70;99.90
17984;DHT22;9117;52.420;20.728;2023-02-12T10:57:18;2.90;99.90
17984;DHT22;9117;52.420;20.728;2023-02-12T10:59:48;3.20;99.90
17984;DHT22;9117;52.420;20.728;2023-02-12T11:02:20;3.50;99.90
17984;DHT22;9117;52.420;20.728;2023-02-12T11:04:49;3.70;99.90
17984;DHT22;9117;52.420;20.728;2023-02-12T11:07:18;3.40;99.90
17984;DHT22;9117;52.420;20.728;2023-02-12T11:09:47;3.40;99.90
17984;DHT22;9117;52.420;20.728;2023-02-12T11:12:27;3.80;99.90
17984;DHT22;9117;52.420;20.728;2023-02-12T11:14:58;3.80;99.90
17984;DHT22;9117;52.420;20.728;2023-02-12T11:17:32;4.00;99.90
17984;DHT22;9117;52.420;20.728;2023-02-12T11:20:04;3.90;99.90
17984;DHT22;9117;52.420;20.728;2023-02-12T11:22:36;4.70;99.90
17984;DHT22;9117;52.420;20.728;2023-02-12T11:25:13;4.20;99.90
17984;DHT22;9117;52.420;20.728;2023-02-12T11:27:44;4.80;99.90
17984;DHT22;9117;52.420;20.728;2023-02-12T11:32:45;5.80;99.90
17984;DHT22;9117;52.420;20.728;2023-02-12T11:35:17;4.90;99.90
17984;DHT22;9117;52.420;20.728;2023-02-12T11:37:53;4.40;99.90
17984;DHT22;9117;52.420;20.728;2023-02-12T11:40:25;4.40;99.90
17984;DHT22;9117;52.420;20.728;2023-02-12T11:42:57;4.50;99.90
17984;DHT22;9117;52.420;20.728;2023-02-12T11:45:30;4.70;99.90
17984;DHT22;9117;52.420;20.728;2023-02-12T11:47:59;5.00;99.90
17984;DHT22;9117;52.420;20.728;2023-02-12T11:50:29;4.40;99.90
17984;DHT22;9117;52.420;20.728;2023-02-12T11:53:01;4.70;99.90
17984;DHT22;9117;52.420;20.728;2023-02-12T11:55:35;4.90;99.90
17984;DHT22;9117;52.420;20.728;2023-02-12T11:58:14;4.90;99.90
17984;DHT22;9117;52.420;20.728;2023-02-12T12:00:45;4.20;99.90
17984;DHT22;9117;52.420;20.728;2023-02-12T12:03:22;4.20;99.90
17984;DHT22;9117;52.420;20.728;2023-02-12T12:05:54;4.00;99.90
17984;DHT22;9117;52.420;20.728;2023-02-12T12:08:29;3.70;99.90
17984;DHT22;9117;52.420;20.728;2023-02-12T12:11:02;4.10;99.90
17984;DHT22;9117;52.420;20.728;2023-02-12T12:13:40;4.10;99.90
17984;DHT22;9117;52.420;20.728;2023-02-12T12:16:13;3.80;99.90
17984;DHT22;9117;52.420;20.728;2023-02-12T12:19:04;3.60;99.90
17984;DHT22;9117;52.420;20.728;2023-02-12T12:21:58;3.50;99.90
17984;DHT22;9117;52.420;20.728;2023-02-12T12:24:34;3.40;99.90
17984;DHT22;9117;52.420;20.728;2023-02-12T12:27:10;3.50;99.90
17984;DHT22;9117;52.420;20.728;2023-02-12T12:30:07;3.10;99.90
17984;DHT22;9117;52.420;20.728;2023-02-12T12:32:40;3.30;99.90
17984;DHT22;9117;52.420;20.728;2023-02-12T12:35:10;3.30;99.90
17984;DHT22;9117;52.420;20.728;2023-02-12T12:37:44;3.30;99.90
17984;DHT22;9117;52.420;20.728;2023-02-12T12:40:38;3.30;99.90
17984;DHT22;9117;52.420;20.728;2023-02-12T12:43:13;3.60;99.90
17984;DHT22;9117;52.420;20.728;2023-02-12T12:46:21;3.60;99.90
17984;DHT22;9117;52.420;20.728;2023-02-12T12:49:08;3.90;99.90
17984;DHT22;9117;52.420;20.728;2023-02-12T12:52:01;3.70;99.90
17984;DHT22;9117;52.420;20.728;2023-02-12T12:54:43;3.80;99.90
17984;DHT22;9117;52.420;20.728;2023-02-12T12:57:21;4.00;99.90
17984;DHT22;9117;52.420;20.728;2023-02-12T13:00:05;3.80;99.90
17984;DHT22;9117;52.420;20.728;2023-02-12T13:03:03;3.70;99.90
17984;DHT22;9117;52.420;20.728;2023-02-12T13:09:19;3.90;99.90
17984;DHT22;9117;52.420;20.728;2023-02-12T13:12:07;3.90;99.90
17984;DHT22;9117;52.420;20.728;2023-02-12T13:14:44;3.90;99.90
17984;DHT22;9117;52.420;20.728;2023-02-12T13:17:20;4.10;99.90
17984;DHT22;9117;52.420;20.728;2023-02-12T13:20:03;3.90;99.90
17984;DHT22;9117;52.420;20.728;2023-02-12T13:22:36;4.10;99.90
17984;DHT22;9117;52.420;20.728;2023-02-12T13:25:20;4.10;99.90
17984;DHT22;9117;52.420;20.728;2023-02-12T13:27:50;4.40;99.90
17984;DHT22;9117;52.420;20.728;2023-02-12T13:30:22;4.40;99.90
17984;DHT22;9117;52.420;20.728;2023-02-12T13:33:02;4.30;99.90
17984;DHT22;9117;52.420;20.728;2023-02-12T13:35:37;4.20;99.90
17984;DHT22;9117;52.420;20.728;2023-02-12T13:38:08;4.20;99.90
17984;DHT22;9117;52.420;20.728;2023-02-12T13:40:41;4.00;99.90
17984;DHT22;9117;52.420;20.728;2023-02-12T13:43:17;3.90;99.90
17984;DHT22;9117;52.420;20.728;2023-02-12T13:45:57;4.00;99.90
17984;DHT22;9117;52.420;20.728;2023-02-12T13:48:47;4.00;99.90
17984;DHT22;9117;52.420;20.728;2023-02-12T13:51:27;4.10;99.90
17984;DHT22;9117;52.420;20.728;2023-02-12T13:54:17;4.10;99.90
17984;DHT22;9117;52.420;20.728;2023-02-12T13:56:48;4.20;99.90
17984;DHT22;9117;52.420;20.728;2023-02-12T13:59:50;4.30;99.90
17984;DHT22;9117;52.420;20.728;2023-02-12T14:02:41;4.10;99.90
17984;DHT22;9117;52.420;20.728;2023-02-12T14:05:27;3.80;99.90
17984;DHT22;9117;52.420;20.728;2023-02-12T14:08:00;3.90;99.90
17984;DHT22;9117;52.420;20.728;2023-02-12T14:10:32;4.20;99.90
17984;DHT22;9117;52.420;20.728;2023-02-12T14:13:12;4.20;99.90
17984;DHT22;9117;52.420;20.728;2023-02-12T14:15:43;4.10;99.90
17984;DHT22;9117;52.420;20.728;2023-02-12T14:18:32;4.00;99.90
17984;DHT22;9117;52.420;20.728;2023-02-12T14:24:47;4.00;99.90
17984;DHT22;9117;52.420;20.728;2023-02-12T14:27:22;3.90;99.90
17984;DHT22;9117;52.420;20.728;2023-02-12T14:30:27;3.70;99.90
17984;DHT22;9117;52.420;20.728;2023-02-12T14:33:22;3.80;99.90
17984;DHT22;9117;52.420;20.728;2023-02-12T14:36:14;3.50;99.90
17984;DHT22;9117;52.420;20.728;2023-02-12T14:39:02;3.40;99.90
17984;DHT22;9117;52.420;20.728;2023-02-12T14:41:34;3.30;99.90
17984;DHT22;9117;52.420;20.728;2023-02-12T14:44:44;3.30;99.90
17984;DHT22;9117;52.420;20.728;2023-02-12T14:50:21;3.10;99.90
17984;DHT22;9117;52.420;20.728;2023-02-12T14:52:57;3.00;99.90
17984;DHT22;9117;52.420;20.728;2023-02-12T14:55:29;2.90;99.90
17984;DHT22;9117;52.420;20.728;2023-02-12T14:58:04;2.90;99.90
17984;DHT22;9117;52.420;20.728;2023-02-12T15:00:35;2.70;99.90
17984;DHT22;9117;52.420;20.728;2023-02-12T15:03:21;2.70;99.90
17984;DHT22;9117;52.420;20.728;2023-02-12T15:05:57;2.70;99.90
17984;DHT22;9117;52.420;20.728;2023-02-12T15:08:31;2.60;99.90
17984;DHT22;9117;52.420;20.728;2023-02-12T15:11:18;2.60;99.90
17984;DHT22;9117;52.420;20.728;2023-02-12T15:13:52;2.40;99.90
17984;DHT22;9117;52.420;20.728;2023-02-12T15:16:28;2.50;99.90
17984;DHT22;9117;52.420;20.728;2023-02-12T15:19:03;2.30;99.90
17984;DHT22;9117;52.420;20.728;2023-02-12T15:21:34;2.30;99.90
17984;DHT22;9117;52.420;20.728;2023-02-12T15:24:05;2.30;99.90
17984;DHT22;9117;52.420;20.728;2023-02-12T15:26:36;2.20;99.90
17984;DHT22;9117;52.420;20.728;2023-02-12T15:29:18;2.00;99.90
17984;DHT22;9117;52.420;20.728;2023-02-12T15:31:50;2.10;99.90
17984;DHT22;9117;52.420;20.728;2023-02-12T15:34:21;2.00;99.90
17984;DHT22;9117;52.420;20.728;2023-02-12T15:36:50;2.00;99.90
17984;DHT22;9117;52.420;20.728;2023-02-12T15:39:20;1.90;99.90
17984;DHT22;9117;52.420;20.728;2023-02-12T15:41:49;1.90;99.90
17984;DHT22;9117;52.420;20.728;2023-02-12T15:44:24;1.80;99.90
17984;DHT22;9117;52.420;20.728;2023-02-12T15:47:01;1.80;99.90
17984;DHT22;9117;52.420;20.728;2023-02-12T15:49:33;1.80;99.90
17984;DHT22;9117;52.420;20.728;2023-02-12T15:52:04;1.70;99.90
17984;DHT22;9117;52.420;20.728;2023-02-12T15:54:43;1.70;99.90
17984;DHT22;9117;52.420;20.728;2023-02-12T15:57:17;1.60;99.90
17984;DHT22;9117;52.420;20.728;2023-02-12T15:59:50;1.60;99.90
17984;DHT22;9117;52.420;20.728;2023-02-12T16:02:21;1.60;99.90
17984;DHT22;9117;52.420;20.728;2023-02-12T16:04:51;1.50;99.90
17984;DHT22;9117;52.420;20.728;2023-02-12T16:07:20;1.50;99.90
17984;DHT22;9117;52.420;20.728;2023-02-12T16:09:51;1.40;99.90
17984;DHT22;9117;52.420;20.728;2023-02-12T16:12:22;1.40;99.90
17984;DHT22;9117;52.420;20.728;2023-02-12T16:14:54;1.40;99.90
17984;DHT22;9117;52.420;20.728;2023-02-12T16:17:27;1.30;99.50
17984;DHT22;9117;52.420;20.728;2023-02-12T16:19:57;1.20;99.90
17984;DHT22;9117;52.420;20.728;2023-02-12T16:22:29;1.20;99.90
17984;DHT22;9117;52.420;20.728;2023-02-12T16:24:59;1.20;99.90
17984;DHT22;9117;52.420;20.728;2023-02-12T16:27:29;1.20;99.90
17984;DHT22;9117;52.420;20.728;2023-02-12T16:30:02;1.10;99.40
17984;DHT22;9117;52.420;20.728;2023-02-12T16:32:36;1.10;94.50
17984;DHT22;9117;52.420;20.728;2023-02-12T16:35:21;1.10;93.90
17984;DHT22;9117;52.420;20.728;2023-02-12T16:37:51;1.00;93.90
17984;DHT22;9117;52.420;20.728;2023-02-12T16:40:34;0.90;93.20